createdAt,value
2023-01-23T00:00:01.344Z,7.70
2023-01-23T00:20:00.336Z,9.80
2023-01-23T00:40:00.903Z,8.10
2023-01-23T01:40:01.289Z,9.30
2023-01-23T02:00:00.891Z,9.10
2023-01-23T02:20:01.420Z,9.80
2023-01-23T03:00:01.376Z,8.80
2023-01-23T03:20:02.023Z,9.90
2023-01-23T03:40:02.115Z,11.10
2023-01-23T04:00:00.920Z,11.70
2023-01-23T04:20:00.881Z,10.40
2023-01-23T04:40:01.112Z,8.90
2023-01-23T05:00:00.913Z,9.20
2023-01-23T05:20:01.093Z,8.60
2023-01-23T05:40:01.139Z,10.50
2023-01-23T06:00:01.599Z,11.00
2023-01-23T06:20:00.964Z,10.50
2023-01-23T06:40:01.413Z,10.50
2023-01-23T07:00:00.348Z,8.70
2023-01-23T07:20:01.113Z,9.20
2023-01-23T07:40:01.090Z,9.10
2023-01-23T08:00:00.889Z,11.30
2023-01-23T08:20:01.531Z,10.30
2023-01-23T08:50:01.195Z,10.40
2023-01-23T09:00:00.885Z,11.10
2023-01-23T09:20:01.386Z,11.30
2023-01-23T09:40:00.895Z,10.90
2023-01-23T10:00:01.288Z,12.10
2023-01-23T10:20:00.867Z,12.20
2023-01-23T10:40:00.959Z,12.20
2023-01-23T11:10:00.524Z,11.10
2023-01-23T11:20:00.907Z,11.10
2023-01-23T11:40:00.941Z,12.10
2023-01-23T12:00:01.358Z,12.20
2023-01-23T12:20:01.152Z,12.10
2023-01-23T12:40:01.384Z,11.00
2023-01-23T13:00:02.748Z,9.90
2023-01-23T13:20:02.756Z,9.70
2023-01-23T14:00:01.487Z,8.00
2023-01-23T14:20:00.335Z,8.10
2023-01-23T14:40:12.462Z,8.50
2023-01-23T15:20:01.118Z,9.00
2023-01-23T15:40:01.397Z,8.70
2023-01-23T16:00:03.445Z,9.90
2023-01-23T16:20:01.310Z,9.70
2023-01-23T16:40:02.199Z,9.50
2023-01-23T17:00:02.405Z,9.00
2023-01-23T17:20:01.223Z,9.50
2023-01-23T17:40:01.983Z,13.50
2023-01-23T18:00:02.088Z,9.00
2023-01-23T18:40:01.310Z,9.00
2023-01-23T19:00:02.473Z,8.70
2023-01-23T19:20:01.139Z,9.90
2023-01-23T19:40:01.075Z,8.80
2023-01-23T20:00:00.380Z,8.30
2023-01-23T20:20:01.511Z,7.50
2023-01-23T21:20:00.368Z,8.40
2023-01-23T21:40:01.083Z,7.40
2023-01-23T22:00:01.383Z,8.50
2023-01-23T22:20:01.387Z,9.00
2023-01-23T22:40:01.120Z,7.40
2023-01-23T23:00:01.071Z,7.30
2023-01-23T23:20:01.036Z,8.10
2023-01-23T23:40:01.113Z,9.40
